Time;durP1;ratioP1;P1;durP2;ratioP2;P2;SDS_P1;SDS_P2;PMS_P1;PMS_P2;Temp;Humidity;BMP_temperature;BMP_pressure;BME280_temperature;BME280_humidity;BME280_pressure;Samples;Min_cycle;Max_cycle;Signal;HPM_P1;HPM_P2
2023/03/07 00:02:24;;;;;;;;;;;;;;;3.21;100.00;99834.38;5020139;28;20020;-71
2023/03/07 00:04:49;;;;;;;;;;;;;;;3.17;100.00;99837.31;5006164;28;19932;-73
2023/03/07 00:07:14;;;;;;;;;;;;;;;3.14;100.00;99833.03;5020753;28;20073;-72
2023/03/07 00:09:39;;;;;;;;;;;;;;;3.05;100.00;99834.47;5015512;28;19917;-72
2023/03/07 00:12:05;;;;;;;;;;;;;;;3.05;100.00;99830.97;5008018;28;19954;-72
2023/03/07 00:14:31;;;;;;;;;;;;;;;3.04;100.00;99823.97;5004696;28;19921;-72
2023/03/07 00:16:57;;;;;;;;;;;;;;;3.04;100.00;99835.44;5002418;28;19926;-72
2023/03/07 00:19:22;;;;;;;;;;;;;;;3.02;100.00;99839.13;5000029;28;19921;-72
2023/03/07 00:21:47;;;;;;;;;;;;;;;2.97;100.00;99842.94;5016458;28;19968;-72
2023/03/07 00:24:12;;;;;;;;;;;;;;;3.00;100.00;99842.75;5005599;28;19944;-73
2023/03/07 00:26:38;;;;;;;;;;;;;;;2.97;100.00;99842.06;4980713;28;20003;-73
2023/03/07 00:29:04;;;;;;;;;;;;;;;3.05;100.00;99837.13;5016195;28;20047;-73
2023/03/07 00:31:29;;;;;;;;;;;;;;;3.15;100.00;99832.09;5019502;28;20541;-72
2023/03/07 00:33:54;;;;;;;;;;;;;;;3.15;100.00;99830.31;5019151;28;20007;-73
2023/03/07 00:36:20;;;;;;;;;;;;;;;3.16;100.00;99833.81;5011877;28;19999;-73
2023/03/07 00:38:46;;;;;;;;;;;;;;;3.21;100.00;99841.47;5021282;28;19956;-72
2023/03/07 00:41:12;;;;;;;;;;;;;;;3.25;100.00;99832.38;5022779;28;20044;-72
2023/03/07 00:43:37;;;;;;;;;;;;;;;3.14;100.00;99830.41;5006363;28;19956;-72
2023/03/07 00:46:03;;;;;;;;;;;;;;;3.19;100.00;99833.63;5020939;28;19956;-72
2023/03/07 00:48:28;;;;;;;;;;;;;;;3.18;100.00;99831.91;5005367;28;20273;-73
2023/03/07 00:50:53;;;;;;;;;;;;;;;3.16;100.00;99825.84;5000284;28;19921;-73
2023/03/07 00:53:18;;;;;;;;;;;;;;;3.15;100.00;99827.66;5018613;28;19921;-73
2023/03/07 00:55:53;;;;;;;;;;;;;;;3.21;100.00;99828.19;4997128;28;20429;-72
2023/03/07 00:58:18;;;;;;;;;;;;;;;3.21;100.00;99820.25;5003370;28;20459;-74
2023/03/07 01:00:43;;;;;;;;;;;;;;;3.16;100.00;99820.53;5002677;28;19976;-71
2023/03/07 01:03:09;;;;;;;;;;;;;;;3.17;100.00;99819.59;5006625;28;20039;-72
2023/03/07 01:05:37;;;;;;;;;;;;;;;3.14;100.00;99825.97;5000967;28;20016;-72
2023/03/07 01:08:02;;;;;;;;;;;;;;;3.14;100.00;99818.00;5009634;28;19925;-72
2023/03/07 01:10:28;;;;;;;;;;;;;;;3.14;100.00;99811.84;5000681;28;19929;-72
2023/03/07 01:12:53;;;;;;;;;;;;;;;3.13;100.00;99815.44;5007929;28;19917;-73
2023/03/07 01:15:18;;;;;;;;;;;;;;;3.04;100.00;99813.38;5003807;28;19925;-73
2023/03/07 01:17:44;;;;;;;;;;;;;;;3.01;100.00;99817.06;5006305;28;19967;-73
2023/03/07 01:20:09;;;;;;;;;;;;;;;3.02;100.00;99813.47;5003319;28;19928;-72
2023/03/07 01:22:34;;;;;;;;;;;;;;;3.03;100.00;99809.03;5004400;28;19921;-72
2023/03/07 01:25:00;;;;;;;;;;;;;;;3.07;100.00;99813.16;5000779;28;19928;-72
2023/03/07 01:27:25;;;;;;;;;;;;;;;3.01;100.00;99806.44;5020886;28;19940;-73
2023/03/07 01:29:50;;;;;;;;;;;;;;;3.06;100.00;99807.00;5004313;28;19960;-71
2023/03/07 01:32:15;;;;;;;;;;;;;;;3.11;100.00;99806.72;5020366;28;20004;-72
2023/03/07 01:34:40;;;;;;;;;;;;;;;3.05;100.00;99802.66;5001770;28;20374;-72
2023/03/07 01:37:06;;;;;;;;;;;;;;;3.03;100.00;99793.94;4998057;28;20276;-72
2023/03/07 01:39:31;;;;;;;;;;;;;;;3.03;100.00;99799.25;5014127;28;20440;-71
2023/03/07 01:41:56;;;;;;;;;;;;;;;3.06;100.00;99792.88;4998241;28;20382;-72
2023/03/07 01:44:23;;;;;;;;;;;;;;;3.04;100.00;99797.47;5015285;28;19929;-72
2023/03/07 01:46:49;;;;;;;;;;;;;;;3.00;100.00;99789.69;5014386;28;19927;-72
2023/03/07 01:49:24;;;;;;;;;;;;;;;2.88;100.00;99768.41;4997274;28;19922;-72
2023/03/07 01:51:53;;;;;;;;;;;;;;;3.07;100.00;99779.53;4997524;28;19922;-72
2023/03/07 01:54:18;;;;;;;;;;;;;;;3.09;100.00;99782.09;4992969;28;19921;-72
2023/03/07 01:56:43;;;;;;;;;;;;;;;3.10;100.00;99774.06;5014637;28;19933;-71
2023/03/07 01:59:09;;;;;;;;;;;;;;;3.12;100.00;99784.56;4996803;28;20036;-72
2023/03/07 02:01:34;;;;;;;;;;;;;;;3.12;100.00;99777.47;4995889;28;19971;-72
2023/03/07 02:04:02;;;;;;;;;;;;;;;3.13;100.00;99767.69;5013191;28;19928;-72
2023/03/07 02:06:27;;;;;;;;;;;;;;;3.18;100.00;99765.59;5011456;28;19973;-72
2023/03/07 02:08:52;;;;;;;;;;;;;;;3.13;100.00;99763.25;4997733;28;19925;-72
2023/03/07 02:11:18;;;;;;;;;;;;;;;3.07;100.00;99763.63;5013810;28;20246;-72
2023/03/07 02:13:43;;;;;;;;;;;;;;;3.13;100.00;99765.03;4997562;28;19936;-72
2023/03/07 02:16:08;;;;;;;;;;;;;;;3.08;100.00;99760.03;5012637;28;19929;-72
2023/03/07 02:18:34;;;;;;;;;;;;;;;3.12;100.00;99750.06;5013812;28;19921;-72
2023/03/07 02:21:02;;;;;;;;;;;;;;;3.14;100.00;99751.69;4996146;28;19921;-72
2023/03/07 02:23:34;;;;;;;;;;;;;;;3.13;100.00;99747.34;4998606;28;19972;-73
2023/03/07 02:26:05;;;;;;;;;;;;;;;3.19;100.00;99748.72;4995820;28;19921;-72
2023/03/07 02:28:30;;;;;;;;;;;;;;;3.15;100.00;99747.22;4997993;28;20016;-72
2023/03/07 02:30:57;;;;;;;;;;;;;;;3.20;100.00;99745.13;5012213;28;20002;-72
2023/03/07 02:33:25;;;;;;;;;;;;;;;3.32;100.00;99739.97;5015195;28;19968;-72
2023/03/07 02:35:54;;;;;;;;;;;;;;;3.25;100.00;99737.72;4996727;28;19933;-72
2023/03/07 02:38:19;;;;;;;;;;;;;;;3.24;100.00;99743.97;5013467;28;20397;-72
2023/03/07 02:40:44;;;;;;;;;;;;;;;3.17;100.00;99729.41;4997727;28;20390;-72
2023/03/07 02:43:10;;;;;;;;;;;;;;;3.18;100.00;99727.63;5016927;28;19921;-72
2023/03/07 02:45:35;;;;;;;;;;;;;;;3.15;100.00;99732.19;5000582;28;19987;-72
2023/03/07 02:48:00;;;;;;;;;;;;;;;3.18;100.00;99720.50;4998960;28;19947;-73
2023/03/07 02:50:25;;;;;;;;;;;;;;;3.18;100.00;99733.75;4999378;28;20288;-72
2023/03/07 02:52:50;;;;;;;;;;;;;;;3.16;100.00;99730.34;5001562;28;20035;-72
2023/03/07 02:55:16;;;;;;;;;;;;;;;3.21;100.00;99724.75;5001467;28;19921;-72
2023/03/07 02:57:41;;;;;;;;;;;;;;;3.25;100.00;99726.25;5003430;28;20008;-72
2023/03/07 03:00:07;;;;;;;;;;;;;;;3.22;100.00;99718.50;5015969;28;20279;-72
2023/03/07 03:02:32;;;;;;;;;;;;;;;3.20;100.00;99729.22;5000695;28;20387;-73
2023/03/07 03:04:57;;;;;;;;;;;;;;;3.03;100.00;99687.88;5017104;28;19939;-72
2023/03/07 03:07:22;;;;;;;;;;;;;;;3.18;100.00;99719.66;5002674;28;19917;-73
2023/03/07 03:09:47;;;;;;;;;;;;;;;3.15;100.00;99726.88;5001221;28;19921;-73
2023/03/07 03:12:13;;;;;;;;;;;;;;;3.15;100.00;99724.22;5003401;28;19929;-73
2023/03/07 03:14:38;;;;;;;;;;;;;;;3.15;100.00;99720.69;4998350;28;19929;-72
2023/03/07 03:17:03;;;;;;;;;;;;;;;3.17;100.00;99729.41;5003096;28;19952;-72
2023/03/07 03:19:28;;;;;;;;;;;;;;;3.25;100.00;99729.78;4997814;28;19961;-72
2023/03/07 03:21:53;;;;;;;;;;;;;;;3.17;100.00;99731.22;4997816;28;19945;-73
2023/03/07 03:24:19;;;;;;;;;;;;;;;3.18;100.00;99720.50;4996545;28;19980;-74
2023/03/07 03:26:44;;;;;;;;;;;;;;;3.21;100.00;99722.09;4998578;28;19928;-72
2023/03/07 03:29:09;;;;;;;;;;;;;;;3.15;100.00;99731.31;4997855;28;19922;-72
2023/03/07 03:31:34;;;;;;;;;;;;;;;3.09;100.00;99724.59;4996117;28;20332;-72
2023/03/07 03:34:00;;;;;;;;;;;;;;;3.16;100.00;99725.06;5013204;28;20325;-72
2023/03/07 03:36:25;;;;;;;;;;;;;;;3.12;100.00;99726.19;4984996;28;19929;-73
2023/03/07 03:38:54;;;;;;;;;;;;;;;3.05;100.00;99724.88;5004133;28;19922;-72
2023/03/07 03:41:19;;;;;;;;;;;;;;;3.06;100.00;99723.94;4999185;28;19921;-73
2023/03/07 03:43:44;;;;;;;;;;;;;;;3.04;100.00;99716.09;4998840;28;19947;-73
2023/03/07 03:46:10;;;;;;;;;;;;;;;3.02;100.00;99714.50;5002690;28;19921;-74
2023/03/07 03:48:35;;;;;;;;;;;;;;;3.05;100.00;99708.97;4999870;28;20052;-72
2023/03/07 03:51:05;;;;;;;;;;;;;;;3.11;100.00;99709.44;5007192;28;20024;-72
2023/03/07 03:53:31;;;;;;;;;;;;;;;3.07;100.00;99707.06;5003141;28;20016;-72
2023/03/07 03:56:10;;;;;;;;;;;;;;;3.06;100.00;99710.66;5005397;28;19925;-72
2023/03/07 03:58:36;;;;;;;;;;;;;;;3.04;100.00;99709.94;5005049;28;19959;-73
2023/03/07 04:01:04;;;;;;;;;;;;;;;3.03;100.00;99703.78;5004206;28;19921;-72
2023/03/07 04:03:30;;;;;;;;;;;;;;;3.06;100.00;99694.75;5007506;28;19925;-72
2023/03/07 04:05:59;;;;;;;;;;;;;;;3.04;100.00;99692.22;5015468;28;19921;-72
2023/03/07 04:08:24;;;;;;;;;;;;;;;3.10;100.00;99690.97;5006010;28;19940;-72
2023/03/07 04:10:49;;;;;;;;;;;;;;;3.08;100.00;99687.56;5006126;28;20372;-72
2023/03/07 04:13:14;;;;;;;;;;;;;;;3.12;100.00;99683.75;5000901;28;20508;-72
2023/03/07 04:15:40;;;;;;;;;;;;;;;3.14;100.00;99673.91;5016419;28;20008;-73
2023/03/07 04:18:05;;;;;;;;;;;;;;;3.04;100.00;99672.81;5013445;28;19928;-72
2023/03/07 04:20:30;;;;;;;;;;;;;;;2.96;100.00;99671.50;5000517;28;19985;-72
2023/03/07 04:22:56;;;;;;;;;;;;;;;3.07;100.00;99673.47;4999558;28;19930;-73
2023/03/07 04:25:21;;;;;;;;;;;;;;;3.13;100.00;99670.41;4998979;28;19925;-72
2023/03/07 04:27:46;;;;;;;;;;;;;;;3.14;100.00;99669.47;5002932;28;19926;-72
2023/03/07 04:30:11;;;;;;;;;;;;;;;3.07;100.00;99669.94;5004885;28;19925;-72
2023/03/07 04:32:38;;;;;;;;;;;;;;;3.04;100.00;99664.88;5002297;28;20288;-72
2023/03/07 04:35:03;;;;;;;;;;;;;;;3.02;100.00;99648.19;4997275;28;20375;-72
2023/03/07 04:37:28;;;;;;;;;;;;;;;3.02;100.00;99658.81;5001325;28;19928;-72
2023/03/07 04:39:53;;;;;;;;;;;;;;;3.08;100.00;99658.38;5001033;28;19944;-72
2023/03/07 04:42:19;;;;;;;;;;;;;;;3.07;100.00;99646.06;5000861;28;19973;-72
2023/03/07 04:44:44;;;;;;;;;;;;;;;3.05;100.00;99651.50;5002039;28;20012;-72
2023/03/07 04:47:09;;;;;;;;;;;;;;;3.04;100.00;99647.13;4998726;28;19976;-72
2023/03/07 04:49:34;;;;;;;;;;;;;;;2.97;100.00;99646.69;5001936;28;19921;-72
2023/03/07 04:51:59;;;;;;;;;;;;;;;2.99;100.00;99646.59;5002781;28;19999;-72
2023/03/07 04:54:25;;;;;;;;;;;;;;;2.98;100.00;99640.44;5001881;28;20391;-72
2023/03/07 04:56:50;;;;;;;;;;;;;;;2.92;100.00;99642.63;5001492;28;20360;-72
2023/03/07 04:59:15;;;;;;;;;;;;;;;2.96;100.00;99633.53;5022737;28;19944;-72
2023/03/07 05:01:40;;;;;;;;;;;;;;;2.99;100.00;99652.75;5007616;28;20020;-72
2023/03/07 05:04:06;;;;;;;;;;;;;;;3.00;100.00;99641.19;5006994;28;19955;-72
2023/03/07 05:06:31;;;;;;;;;;;;;;;3.04;100.00;99647.13;5006456;28;19952;-72
2023/03/07 05:08:56;;;;;;;;;;;;;;;3.06;100.00;99642.59;5006209;28;20719;-72
2023/03/07 05:11:21;;;;;;;;;;;;;;;3.06;100.00;99639.94;5002602;28;20410;-72
2023/03/07 05:13:46;;;;;;;;;;;;;;;2.99;100.00;99638.63;5001047;28;20372;-72
2023/03/07 05:16:12;;;;;;;;;;;;;;;2.88;100.00;99641.16;4999519;28;20451;-72
2023/03/07 05:18:37;;;;;;;;;;;;;;;2.75;100.00;99635.78;4998009;28;20295;-72
2023/03/07 05:21:02;;;;;;;;;;;;;;;2.64;100.00;99639.13;5001757;28;20387;-73
2023/03/07 05:23:27;;;;;;;;;;;;;;;2.62;100.00;99625.13;5017283;28;19921;-72
2023/03/07 05:25:53;;;;;;;;;;;;;;;2.52;100.00;99633.66;5003557;28;20381;-72
2023/03/07 05:28:18;;;;;;;;;;;;;;;2.45;100.00;99634.16;5001997;28;19944;-72
2023/03/07 05:30:46;;;;;;;;;;;;;;;2.52;100.00;99635.44;5000644;28;19979;-73
2023/03/07 05:33:11;;;;;;;;;;;;;;;2.50;100.00;99635.53;5002984;28;19921;-73
2023/03/07 05:35:37;;;;;;;;;;;;;;;2.47;100.00;99634.91;5002972;28;19925;-72
2023/03/07 05:38:03;;;;;;;;;;;;;;;2.51;100.00;99634.59;4998522;28;20105;-72
2023/03/07 05:40:28;;;;;;;;;;;;;;;2.53;100.00;99637.13;5010879;28;19936;-72
2023/03/07 05:42:53;;;;;;;;;;;;;;;2.53;100.00;99631.84;5003871;28;19922;-72
2023/03/07 05:45:20;;;;;;;;;;;;;;;2.51;100.00;99636.41;4999715;28;20497;-71
2023/03/07 05:47:45;;;;;;;;;;;;;;;2.54;100.00;99631.75;4999920;28;19933;-72
2023/03/07 05:50:10;;;;;;;;;;;;;;;2.53;100.00;99632.69;4996922;28;19925;-72
2023/03/07 05:52:35;;;;;;;;;;;;;;;2.51;100.00;99633.75;4998966;28;19921;-72
2023/03/07 05:55:00;;;;;;;;;;;;;;;2.48;100.00;99642.75;5002947;28;19921;-72
2023/03/07 05:57:26;;;;;;;;;;;;;;;2.50;100.00;99640.00;5003512;28;20571;-72
2023/03/07 05:59:51;;;;;;;;;;;;;;;2.46;100.00;99630.56;4998349;28;19922;-72
2023/03/07 06:02:16;;;;;;;;;;;;;;;2.54;100.00;99636.19;5000776;28;19925;-71
2023/03/07 06:04:41;;;;;;;;;;;;;;;2.53;100.00;99634.47;4999130;28;19991;-72
2023/03/07 06:07:07;;;;;;;;;;;;;;;2.52;100.00;99628.34;4999816;28;20035;-72
2023/03/07 06:09:32;;;;;;;;;;;;;;;2.38;100.00;99628.38;5002340;28;19929;-70
2023/03/07 06:11:57;;;;;;;;;;;;;;;2.34;100.00;99625.06;5012547;28;19926;-71
2023/03/07 06:14:23;;;;;;;;;;;;;;;2.34;100.00;99619.75;4998751;28;19929;-71
2023/03/07 06:16:48;;;;;;;;;;;;;;;2.33;100.00;99630.47;5018128;28;19933;-71
2023/03/07 06:19:14;;;;;;;;;;;;;;;2.28;100.00;99630.75;5000454;28;20398;-71
2023/03/07 06:21:39;;;;;;;;;;;;;;;2.32;100.00;99632.25;5002402;28;19936;-71
2023/03/07 06:24:06;;;;;;;;;;;;;;;2.35;100.00;99623.28;5002063;28;20316;-71
2023/03/07 06:26:31;;;;;;;;;;;;;;;2.33;100.00;99630.47;5018829;28;19921;-71
2023/03/07 06:28:56;;;;;;;;;;;;;;;2.07;100.00;99602.00;5019842;28;19928;-71
2023/03/07 06:31:21;;;;;;;;;;;;;;;2.15;100.00;99633.31;5001364;28;19925;-72
2023/03/07 06:33:47;;;;;;;;;;;;;;;2.18;100.00;99629.63;5000760;28;19922;-71
2023/03/07 06:36:13;;;;;;;;;;;;;;;2.18;100.00;99633.13;5016653;28;19933;-71
2023/03/07 06:38:38;;;;;;;;;;;;;;;2.06;100.00;99636.53;5004894;28;19921;-71
2023/03/07 06:41:03;;;;;;;;;;;;;;;2.05;100.00;99643.63;5001077;28;20008;-71
2023/03/07 06:43:28;;;;;;;;;;;;;;;2.06;100.00;99649.78;5020024;28;20012;-71
2023/03/07 06:45:54;;;;;;;;;;;;;;;2.01;100.00;99650.03;5000690;28;19921;-71
2023/03/07 06:48:19;;;;;;;;;;;;;;;1.98;100.00;99644.09;5022912;28;19921;-71
2023/03/07 06:50:44;;;;;;;;;;;;;;;1.96;100.00;99638.91;5017585;28;19921;-71
2023/03/07 06:53:09;;;;;;;;;;;;;;;1.89;100.00;99646.34;5006054;28;20364;-71
2023/03/07 06:55:34;;;;;;;;;;;;;;;1.77;100.00;99650.59;5002972;28;20402;-72
2023/03/07 06:58:00;;;;;;;;;;;;;;;1.64;100.00;99641.69;4999073;28;20352;-71
2023/03/07 07:00:25;;;;;;;;;;;;;;;1.66;100.00;99642.47;5000538;28;19921;-72
2023/03/07 07:02:50;;;;;;;;;;;;;;;1.67;100.00;99644.16;5006427;28;19921;-72
2023/03/07 07:05:16;;;;;;;;;;;;;;;1.69;100.00;99644.94;4999630;28;20369;-71
2023/03/07 07:07:41;;;;;;;;;;;;;;;1.67;100.00;99652.09;5004521;28;20249;-71
2023/03/07 07:10:06;;;;;;;;;;;;;;;1.63;100.00;99650.59;5002609;28;19940;-71
2023/03/07 07:12:31;;;;;;;;;;;;;;;1.62;100.00;99644.44;5018096;28;19953;-71
2023/03/07 07:14:57;;;;;;;;;;;;;;;1.68;100.00;99647.66;5001432;28;20612;-71
2023/03/07 07:17:22;;;;;;;;;;;;;;;1.63;100.00;99647.94;5016831;28;20455;-71
2023/03/07 07:19:47;;;;;;;;;;;;;;;1.58;100.00;99653.50;4994881;28;19917;-71
2023/03/07 07:22:14;;;;;;;;;;;;;;;1.58;100.00;99657.94;5000117;28;20284;-71
2023/03/07 07:24:40;;;;;;;;;;;;;;;1.55;100.00;99652.81;5000957;28;19921;-71
2023/03/07 07:27:05;;;;;;;;;;;;;;;1.58;100.00;99655.28;4997409;28;19917;-71
2023/03/07 07:29:30;;;;;;;;;;;;;;;1.62;100.00;99660.31;5016663;28;20020;-71
2023/03/07 07:31:55;;;;;;;;;;;;;;;1.54;100.00;99664.34;4996222;28;19918;-71
2023/03/07 07:34:21;;;;;;;;;;;;;;;1.52;100.00;99660.94;5001768;28;19964;-71
2023/03/07 07:36:46;;;;;;;;;;;;;;;1.58;100.00;99668.53;4997766;28;19925;-71
2023/03/07 07:39:11;;;;;;;;;;;;;;;1.50;100.00;99661.88;4995806;28;19932;-71
2023/03/07 07:41:36;;;;;;;;;;;;;;;1.46;100.00;99668.28;4988429;28;19923;-72
2023/03/07 07:44:01;;;;;;;;;;;;;;;1.33;100.00;99668.16;5006083;28;19925;-72
2023/03/07 07:46:27;;;;;;;;;;;;;;;1.36;100.00;99645.97;5005794;28;19922;-72
2023/03/07 07:48:52;;;;;;;;;;;;;;;1.38;100.00;99673.19;5004681;28;19931;-72
2023/03/07 07:51:17;;;;;;;;;;;;;;;1.29;100.00;99687.81;5004848;28;19921;-72
2023/03/07 07:53:43;;;;;;;;;;;;;;;1.46;100.00;99685.97;5004150;28;19926;-73
2023/03/07 07:56:08;;;;;;;;;;;;;;;1.33;100.00;99691.13;5004787;28;19933;-73
2023/03/07 07:58:34;;;;;;;;;;;;;;;1.19;100.00;99691.91;4987436;28;19936;-73
2023/03/07 08:00:59;;;;;;;;;;;;;;;1.08;100.00;99687.25;5004304;28;19984;-72
2023/03/07 08:03:24;;;;;;;;;;;;;;;1.07;100.00;99693.47;5004386;28;19967;-73
2023/03/07 08:05:50;;;;;;;;;;;;;;;0.95;100.00;99707.34;5002864;28;20357;-72
2023/03/07 08:08:16;;;;;;;;;;;;;;;0.78;100.00;99705.69;5022019;28;20337;-73
2023/03/07 08:10:42;;;;;;;;;;;;;;;0.70;100.00;99701.66;5002741;28;19929;-72
2023/03/07 08:13:10;;;;;;;;;;;;;;;0.66;100.00;99708.06;5000776;28;19924;-72
2023/03/07 08:15:35;;;;;;;;;;;;;;;0.47;100.00;99718.75;5006062;28;20268;-73
2023/03/07 08:18:00;;;;;;;;;;;;;;;0.41;100.00;99719.94;5020285;28;19928;-73
2023/03/07 08:20:26;;;;;;;;;;;;;;;0.39;100.00;99724.44;5002423;28;19921;-72
2023/03/07 08:22:51;;;;;;;;;;;;;;;0.36;100.00;99727.25;4998368;28;19922;-73
2023/03/07 08:25:19;;;;;;;;;;;;;;;0.37;100.00;99728.13;5001306;28;19929;-73
2023/03/07 08:27:44;;;;;;;;;;;;;;;0.24;100.00;99731.41;5007286;28;20008;-73
2023/03/07 08:30:10;;;;;;;;;;;;;;;0.36;100.00;99723.78;5005287;28;19925;-73
2023/03/07 08:32:35;;;;;;;;;;;;;;;0.40;100.00;99725.28;5022067;28;19944;-74
2023/03/07 08:35:00;;;;;;;;;;;;;;;0.46;100.00;99722.31;5005283;28;19925;-74
2023/03/07 08:37:25;;;;;;;;;;;;;;;0.54;100.00;99729.84;5003646;28;19964;-73
2023/03/07 08:39:51;;;;;;;;;;;;;;;0.59;100.00;99728.66;5006684;28;20368;-74
2023/03/07 08:42:16;;;;;;;;;;;;;;;0.65;100.00;99731.94;5007331;28;19928;-73
2023/03/07 08:44:41;;;;;;;;;;;;;;;0.66;100.00;99723.06;5006101;28;19921;-73
2023/03/07 08:47:06;;;;;;;;;;;;;;;0.67;100.00;99736.19;5005902;28;19980;-73
2023/03/07 08:49:32;;;;;;;;;;;;;;;0.77;100.00;99731.22;5004568;28;19921;-74
2023/03/07 08:51:58;;;;;;;;;;;;;;;0.86;100.00;99728.09;5006265;28;19959;-74
2023/03/07 08:54:23;;;;;;;;;;;;;;;0.92;100.00;99731.34;5004777;28;19980;-73
2023/03/07 08:56:48;;;;;;;;;;;;;;;0.95;100.00;99724.09;5006758;28;20273;-73
2023/03/07 08:59:13;;;;;;;;;;;;;;;0.89;100.00;99727.94;5005681;28;19929;-73
2023/03/07 09:01:39;;;;;;;;;;;;;;;0.87;100.00;99719.22;5003943;28;20423;-73
2023/03/07 09:04:04;;;;;;;;;;;;;;;0.92;100.00;99720.78;5020279;28;20470;-73
2023/03/07 09:06:29;;;;;;;;;;;;;;;0.93;100.00;99719.84;5004933;28;21401;-73
2023/03/07 09:08:54;;;;;;;;;;;;;;;1.08;100.00;99726.03;5005507;28;20222;-73
2023/03/07 09:11:20;;;;;;;;;;;;;;;1.12;100.00;99714.34;5006505;28;19921;-73
2023/03/07 09:13:46;;;;;;;;;;;;;;;0.89;100.00;99712.06;5002133;28;20008;-73
2023/03/07 09:16:11;;;;;;;;;;;;;;;0.98;100.00;99720.41;5004149;28;20149;-72
2023/03/07 09:18:36;;;;;;;;;;;;;;;0.91;100.00;99716.41;5005399;28;19929;-73
2023/03/07 09:21:02;;;;;;;;;;;;;;;0.86;100.00;99725.47;5019983;28;19921;-73
2023/03/07 09:23:27;;;;;;;;;;;;;;;1.01;100.00;99728.16;5006500;28;19921;-73
2023/03/07 09:25:52;;;;;;;;;;;;;;;0.86;100.00;99733.38;4999956;28;20434;-72
2023/03/07 09:28:17;;;;;;;;;;;;;;;0.79;100.00;99729.38;5005994;28;19926;-72
2023/03/07 09:30:43;;;;;;;;;;;;;;;1.01;100.00;99733.47;5004342;28;19926;-72
2023/03/07 09:33:08;;;;;;;;;;;;;;;1.12;100.00;99728.44;5003699;28;20315;-73
2023/03/07 09:35:33;;;;;;;;;;;;;;;1.16;100.00;99724.69;5003554;28;19926;-72
2023/03/07 09:37:58;;;;;;;;;;;;;;;1.15;100.00;99730.03;5005207;28;19921;-72
2023/03/07 09:40:25;;;;;;;;;;;;;;;1.20;100.00;99726.19;5004998;28;19921;-72
2023/03/07 09:42:55;;;;;;;;;;;;;;;1.24;100.00;99726.00;5021997;28;19921;-72
2023/03/07 09:45:29;;;;;;;;;;;;;;;1.44;100.00;99728.41;5017832;28;19933;-72
2023/03/07 09:48:06;;;;;;;;;;;;;;;1.44;100.00;99725.75;5006028;28;19922;-72
2023/03/07 09:50:32;;;;;;;;;;;;;;;1.57;100.00;99741.75;5003178;28;19925;-72
2023/03/07 09:52:58;;;;;;;;;;;;;;;1.59;100.00;99734.56;5006763;28;20269;-72
2023/03/07 09:55:23;;;;;;;;;;;;;;;1.56;100.00;99733.91;5002774;28;19972;-72
2023/03/07 09:57:50;;;;;;;;;;;;;;;1.54;100.00;99733.13;5001147;28;20017;-72
2023/03/07 10:00:18;;;;;;;;;;;;;;;1.44;100.00;99738.97;5001255;28;20391;-72
2023/03/07 10:03:02;;;;;;;;;;;;;;;1.49;100.00;99734.25;5004702;28;19925;-72
2023/03/07 10:05:27;;;;;;;;;;;;;;;1.47;100.00;99730.00;5002898;28;19925;-72
2023/03/07 10:07:52;;;;;;;;;;;;;;;1.47;100.00;99740.59;5005775;28;20442;-72
2023/03/07 10:10:19;;;;;;;;;;;;;;;1.43;100.00;99739.91;4994065;28;20004;-71
2023/03/07 10:12:44;;;;;;;;;;;;;;;1.37;100.00;99734.09;5015436;28;20387;-71
2023/03/07 10:15:15;;;;;;;;;;;;;;;1.16;100.00;99737.03;5004362;28;19921;-72
2023/03/07 10:17:40;;;;;;;;;;;;;;;1.22;100.00;99726.13;5003797;28;19991;-71
2023/03/07 10:20:07;;;;;;;;;;;;;;;1.10;100.00;99740.00;5003987;28;19972;-71
2023/03/07 10:22:36;;;;;;;;;;;;;;;1.32;100.00;99740.53;5005894;28;19929;-72
2023/03/07 10:25:04;;;;;;;;;;;;;;;1.54;100.00;99744.59;5008372;28;20088;-72
2023/03/07 10:27:29;;;;;;;;;;;;;;;1.40;100.00;99737.44;5018366;28;19921;-71
2023/03/07 10:29:55;;;;;;;;;;;;;;;1.25;100.00;99749.75;5003743;28;20375;-72
2023/03/07 10:32:20;;;;;;;;;;;;;;;1.29;100.00;99739.84;5004176;28;19921;-71
2023/03/07 10:34:52;;;;;;;;;;;;;;;1.50;100.00;99745.69;5011876;28;20139;-72
2023/03/07 10:37:18;;;;;;;;;;;;;;;1.48;100.00;99742.28;5001187;28;20016;-71
2023/03/07 10:39:51;;;;;;;;;;;;;;;1.47;100.00;99737.94;5004177;28;19964;-71
2023/03/07 10:42:16;;;;;;;;;;;;;;;1.41;100.00;99736.50;5004854;28;20389;-71
2023/03/07 10:44:44;;;;;;;;;;;;;;;1.57;100.00;99739.13;4996052;28;20410;-71
2023/03/07 10:47:12;;;;;;;;;;;;;;;1.69;100.00;99745.50;5003615;28;20364;-71
2023/03/07 10:49:38;;;;;;;;;;;;;;;1.82;100.00;99732.38;4993854;28;19918;-71
2023/03/07 10:52:16;;;;;;;;;;;;;;;2.01;100.00;99734.75;5017851;28;19925;-71
2023/03/07 10:54:41;;;;;;;;;;;;;;;2.08;100.00;99737.94;5003479;28;19921;-71
2023/03/07 10:57:06;;;;;;;;;;;;;;;2.14;100.00;99731.41;5005894;28;19925;-72
2023/03/07 10:59:31;;;;;;;;;;;;;;;2.33;100.00;99729.31;5003506;28;19956;-71
2023/03/07 11:01:57;;;;;;;;;;;;;;;2.27;100.00;99716.44;5003278;28;20027;-71
2023/03/07 11:04:23;;;;;;;;;;;;;;;2.15;100.00;99739.22;5018687;28;19925;-71
2023/03/07 11:06:51;;;;;;;;;;;;;;;2.17;100.00;99731.22;5002038;28;20762;-71
2023/03/07 11:09:19;;;;;;;;;;;;;;;2.35;100.00;99740.69;5003461;28;19964;-72
2023/03/07 11:11:56;;;;;;;;;;;;;;;2.48;100.00;99738.13;5001763;28;19952;-71
2023/03/07 11:14:22;;;;;;;;;;;;;;;2.38;100.00;99731.72;5001628;28;19929;-72
2023/03/07 11:16:48;;;;;;;;;;;;;;;2.41;100.00;99734.13;4998225;28;19926;-71
2023/03/07 11:19:22;;;;;;;;;;;;;;;2.44;100.00;99741.06;4981005;28;20798;-71
2023/03/07 11:21:51;;;;;;;;;;;;;;;2.66;100.00;99744.09;5013100;28;19922;-71
2023/03/07 11:24:19;;;;;;;;;;;;;;;2.58;100.00;99727.81;5002717;28;19921;-71
2023/03/07 11:26:45;;;;;;;;;;;;;;;2.77;100.00;99745.22;5002690;28;19924;-71
2023/03/07 11:29:11;;;;;;;;;;;;;;;2.77;100.00;99737.28;5003870;28;19922;-71
2023/03/07 11:31:42;;;;;;;;;;;;;;;2.70;100.00;99727.06;5003182;28;19929;-71
2023/03/07 11:34:26;;;;;;;;;;;;;;;2.79;100.00;99730.91;5003182;28;19925;-71
2023/03/07 11:36:56;;;;;;;;;;;;;;;2.84;100.00;99733.25;4998671;28;19932;-71
2023/03/07 11:39:24;;;;;;;;;;;;;;;2.72;100.00;99732.25;5001908;28;19933;-71
2023/03/07 11:41:54;;;;;;;;;;;;;;;2.74;100.00;99737.47;5004322;28;19921;-71
2023/03/07 11:44:30;;;;;;;;;;;;;;;2.72;100.00;99729.59;5001761;28;20339;-72
2023/03/07 11:47:32;;;;;;;;;;;;;;;2.54;100.00;99702.44;4998653;28;20336;-70
2023/03/07 11:50:04;;;;;;;;;;;;;;;2.86;100.00;99734.03;4980427;28;20061;-71
2023/03/07 11:52:48;;;;;;;;;;;;;;;2.93;100.00;99731.81;5001315;28;20063;-71
2023/03/07 11:55:28;;;;;;;;;;;;;;;2.97;100.00;99728.91;5001993;28;19921;-71
2023/03/07 11:57:53;;;;;;;;;;;;;;;2.74;100.00;99729.50;4979970;28;20474;-71
2023/03/07 12:00:21;;;;;;;;;;;;;;;2.78;100.00;99737.16;5002218;28;20004;-71
2023/03/07 12:02:50;;;;;;;;;;;;;;;2.87;100.00;99732.22;5004172;28;19922;-72
2023/03/07 12:05:15;;;;;;;;;;;;;;;2.87;100.00;99727.78;5000462;28;22123;-71
2023/03/07 12:07:44;;;;;;;;;;;;;;;2.82;100.00;99729.84;5000540;28;20035;-72
2023/03/07 12:10:24;;;;;;;;;;;;;;;2.83;100.00;99731.56;5003507;28;19917;-71
2023/03/07 12:12:56;;;;;;;;;;;;;;;3.04;100.00;99726.69;4999487;28;19928;-71
2023/03/07 12:15:30;;;;;;;;;;;;;;;3.14;100.00;99721.66;5002269;28;20044;-71
2023/03/07 12:17:58;;;;;;;;;;;;;;;3.15;100.00;99726.88;4998814;28;20016;-71
2023/03/07 12:20:23;;;;;;;;;;;;;;;2.96;100.00;99727.19;5000863;28;20530;-71
2023/03/07 12:22:54;;;;;;;;;;;;;;;2.97;100.00;99733.34;5002301;28;19921;-71
2023/03/07 12:25:35;;;;;;;;;;;;;;;3.00;100.00;99736.66;5006056;28;20387;-71
2023/03/07 12:28:19;;;;;;;;;;;;;;;2.95;100.00;99725.50;5006772;28;20385;-71
2023/03/07 12:30:51;;;;;;;;;;;;;;;2.85;100.00;99721.72;5006426;28;19972;-71
2023/03/07 12:33:21;;;;;;;;;;;;;;;2.91;100.00;99725.78;5004883;28;20004;-71
2023/03/07 12:35:48;;;;;;;;;;;;;;;3.00;100.00;99728.72;5025411;28;19944;-71
2023/03/07 12:38:22;;;;;;;;;;;;;;;3.09;100.00;99726.38;5021734;28;19928;-70
2023/03/07 12:40:50;;;;;;;;;;;;;;;2.88;100.00;99726.81;5004210;28;19925;-70
2023/03/07 12:43:20;;;;;;;;;;;;;;;3.00;100.00;99726.06;5006802;28;20446;-71
2023/03/07 12:45:51;;;;;;;;;;;;;;;3.02;100.00;99725.94;5005093;28;19928;-70